<?xml version="1.0" encoding="UTF-8" standalone="no" ?>
<gpx xmlns="http://www.topografix.com/GPX/1/1" xmlns:xsi="http://www.w3.org/2001/XMLSchema-instance" xsi:schemaLocation="http://www.topografix.com/GPX/1/1 http://www.topografix.com/GPX/1/1/gpx.xsd" version="1.1" creator="VisuGPX - https://www.visugpx.com">
  <metadata>
    <name>La chaux de gilley</name>
    <desc><![CDATA[Parcours au dessus du village de la Chaux de Gilley, en pleine "Réplublique du Saugeais".
De beaux points de vues sur le vallon de Malbuissons.]]></desc>
  </metadata>
  <trk>
    <name><![CDATA[ACTIVE LOG100836]]></name>
    <trkseg>
      <trkpt lat="47.02155" lon="6.42313">
        <ele>897.053</ele>
        <time>2017-06-25T08:08:34Z</time>
      </trkpt>
      <trkpt lat="47.02155" lon="6.42313">
        <ele>897.053</ele>
        <time>2017-06-25T08:08:35Z</time>
      </trkpt>
      <trkpt lat="47.02155" lon="6.42313">
        <ele>898.731</ele>
        <time>2017-06-25T08:08:37Z</time>
      </trkpt>
      <trkpt lat="47.02156" lon="6.42311">
        <ele>897.796</ele>
        <time>2017-06-25T08:08:57Z</time>
      </trkpt>
      <trkpt lat="47.02154" lon="6.42312">
        <ele>898.008</ele>
        <time>2017-06-25T08:09:12Z</time>
      </trkpt>
      <trkpt lat="47.02153" lon="6.42312">
        <ele>898.483</ele>
        <time>2017-06-25T08:09:22Z</time>
      </trkpt>
      <trkpt lat="47.02148" lon="6.42314">
        <ele>898.043</ele>
        <time>2017-06-25T08:09:26Z</time>
      </trkpt>
      <trkpt lat="47.02147" lon="6.42342">
        <ele>896.948</ele>
        <time>2017-06-25T08:09:34Z</time>
      </trkpt>
      <trkpt lat="47.02137" lon="6.42409">
        <ele>896.004</ele>
        <time>2017-06-25T08:09:47Z</time>
      </trkpt>
      <trkpt lat="47.02128" lon="6.42437">
        <ele>895.852</ele>
        <time>2017-06-25T08:09:52Z</time>
      </trkpt>
      <trkpt lat="47.02113" lon="6.42452">
        <ele>896.315</ele>
        <time>2017-06-25T08:09:56Z</time>
      </trkpt>
      <trkpt lat="47.02084" lon="6.42482">
        <ele>896.398</ele>
        <time>2017-06-25T08:10:06Z</time>
      </trkpt>
      <trkpt lat="47.0208" lon="6.42511">
        <ele>897.521</ele>
        <time>2017-06-25T08:10:12Z</time>
      </trkpt>
      <trkpt lat="47.02062" lon="6.42538">
        <ele>899.145</ele>
        <time>2017-06-25T08:10:20Z</time>
      </trkpt>
      <trkpt lat="47.02025" lon="6.42562">
        <ele>898.669</ele>
        <time>2017-06-25T08:10:32Z</time>
      </trkpt>
      <trkpt lat="47.01991" lon="6.4259">
        <ele>898.985</ele>
        <time>2017-06-25T08:10:45Z</time>
      </trkpt>
      <trkpt lat="47.01954" lon="6.42635">
        <ele>897.662</ele>
        <time>2017-06-25T08:10:59Z</time>
      </trkpt>
      <trkpt lat="47.01951" lon="6.42658">
        <ele>896.793</ele>
        <time>2017-06-25T08:11:03Z</time>
      </trkpt>
      <trkpt lat="47.01959" lon="6.42726">
        <ele>896.877</ele>
        <time>2017-06-25T08:11:15Z</time>
      </trkpt>
      <trkpt lat="47.01962" lon="6.42756">
        <ele>895.859</ele>
        <time>2017-06-25T08:11:19Z</time>
      </trkpt>
      <trkpt lat="47.01969" lon="6.42782">
        <ele>894.638</ele>
        <time>2017-06-25T08:11:22Z</time>
      </trkpt>
      <trkpt lat="47.02006" lon="6.4288">
        <ele>892.144</ele>
        <time>2017-06-25T08:11:31Z</time>
      </trkpt>
      <trkpt lat="47.02039" lon="6.42991">
        <ele>891.58</ele>
        <time>2017-06-25T08:11:41Z</time>
      </trkpt>
      <trkpt lat="47.02079" lon="6.4312">
        <ele>889.459</ele>
        <time>2017-06-25T08:11:55Z</time>
      </trkpt>
      <trkpt lat="47.02104" lon="6.43205">
        <ele>886.229</ele>
        <time>2017-06-25T08:12:03Z</time>
      </trkpt>
      <trkpt lat="47.0215" lon="6.43331">
        <ele>886.134</ele>
        <time>2017-06-25T08:12:16Z</time>
      </trkpt>
      <trkpt lat="47.02202" lon="6.43445">
        <ele>884.883</ele>
        <time>2017-06-25T08:12:30Z</time>
      </trkpt>
      <trkpt lat="47.02221" lon="6.43487">
        <ele>884.712</ele>
        <time>2017-06-25T08:12:38Z</time>
      </trkpt>
      <trkpt lat="47.02221" lon="6.43491">
        <ele>885.342</ele>
        <time>2017-06-25T08:12:39Z</time>
      </trkpt>
      <trkpt lat="47.02213" lon="6.43505">
        <ele>884.886</ele>
        <time>2017-06-25T08:12:43Z</time>
      </trkpt>
      <trkpt lat="47.02152" lon="6.43556">
        <ele>885.057</ele>
        <time>2017-06-25T08:13:00Z</time>
      </trkpt>
      <trkpt lat="47.02148" lon="6.4356">
        <ele>884.843</ele>
        <time>2017-06-25T08:13:01Z</time>
      </trkpt>
      <trkpt lat="47.02106" lon="6.43595">
        <ele>887.882</ele>
        <time>2017-06-25T08:13:11Z</time>
      </trkpt>
      <trkpt lat="47.02074" lon="6.43607">
        <ele>887.422</ele>
        <time>2017-06-25T08:13:18Z</time>
      </trkpt>
      <trkpt lat="47.02019" lon="6.43618">
        <ele>887.399</ele>
        <time>2017-06-25T08:13:32Z</time>
      </trkpt>
      <trkpt lat="47.01943" lon="6.43637">
        <ele>889.833</ele>
        <time>2017-06-25T08:13:52Z</time>
      </trkpt>
      <trkpt lat="47.01884" lon="6.4365">
        <ele>891.624</ele>
        <time>2017-06-25T08:14:10Z</time>
      </trkpt>
      <trkpt lat="47.01841" lon="6.43654">
        <ele>894.624</ele>
        <time>2017-06-25T08:14:26Z</time>
      </trkpt>
      <trkpt lat="47.01839" lon="6.43654">
        <ele>894.624</ele>
        <time>2017-06-25T08:14:27Z</time>
      </trkpt>
      <trkpt lat="47.01807" lon="6.43645">
        <ele>897.705</ele>
        <time>2017-06-25T08:14:42Z</time>
      </trkpt>
      <trkpt lat="47.0178" lon="6.4362">
        <ele>898.415</ele>
        <time>2017-06-25T08:15:00Z</time>
      </trkpt>
      <trkpt lat="47.01755" lon="6.43583">
        <ele>900.749</ele>
        <time>2017-06-25T08:15:19Z</time>
      </trkpt>
      <trkpt lat="47.01737" lon="6.43553">
        <ele>902.83</ele>
        <time>2017-06-25T08:15:33Z</time>
      </trkpt>
      <trkpt lat="47.01715" lon="6.43507">
        <ele>905.179</ele>
        <time>2017-06-25T08:15:53Z</time>
      </trkpt>
      <trkpt lat="47.01702" lon="6.43463">
        <ele>906.822</ele>
        <time>2017-06-25T08:16:11Z</time>
      </trkpt>
      <trkpt lat="47.01692" lon="6.43413">
        <ele>909.631</ele>
        <time>2017-06-25T08:16:30Z</time>
      </trkpt>
      <trkpt lat="47.01689" lon="6.43386">
        <ele>910.718</ele>
        <time>2017-06-25T08:16:41Z</time>
      </trkpt>
      <trkpt lat="47.01683" lon="6.43344">
        <ele>912.667</ele>
        <time>2017-06-25T08:16:55Z</time>
      </trkpt>
      <trkpt lat="47.01675" lon="6.43304">
        <ele>914.548</ele>
        <time>2017-06-25T08:17:09Z</time>
      </trkpt>
      <trkpt lat="47.01669" lon="6.43268">
        <ele>916.147</ele>
        <time>2017-06-25T08:17:23Z</time>
      </trkpt>
      <trkpt lat="47.01663" lon="6.43225">
        <ele>917.517</ele>
        <time>2017-06-25T08:17:39Z</time>
      </trkpt>
      <trkpt lat="47.01658" lon="6.43184">
        <ele>919.392</ele>
        <time>2017-06-25T08:17:54Z</time>
      </trkpt>
      <trkpt lat="47.0165" lon="6.4315">
        <ele>921.49</ele>
        <time>2017-06-25T08:18:07Z</time>
      </trkpt>
      <trkpt lat="47.01635" lon="6.4309">
        <ele>923.094</ele>
        <time>2017-06-25T08:18:28Z</time>
      </trkpt>
      <trkpt lat="47.01621" lon="6.43043">
        <ele>925.541</ele>
        <time>2017-06-25T08:18:47Z</time>
      </trkpt>
      <trkpt lat="47.01606" lon="6.42998">
        <ele>926.975</ele>
        <time>2017-06-25T08:19:04Z</time>
      </trkpt>
      <trkpt lat="47.01591" lon="6.42954">
        <ele>929.405</ele>
        <time>2017-06-25T08:19:19Z</time>
      </trkpt>
      <trkpt lat="47.01579" lon="6.429">
        <ele>931.289</ele>
        <time>2017-06-25T08:19:36Z</time>
      </trkpt>
      <trkpt lat="47.01576" lon="6.42865">
        <ele>933.198</ele>
        <time>2017-06-25T08:19:46Z</time>
      </trkpt>
      <trkpt lat="47.01571" lon="6.42812">
        <ele>934.38</ele>
        <time>2017-06-25T08:20:01Z</time>
      </trkpt>
      <trkpt lat="47.01564" lon="6.42774">
        <ele>935.045</ele>
        <time>2017-06-25T08:20:12Z</time>
      </trkpt>
      <trkpt lat="47.01549" lon="6.42726">
        <ele>935.591</ele>
        <time>2017-06-25T08:20:27Z</time>
      </trkpt>
      <trkpt lat="47.01527" lon="6.42675">
        <ele>936.274</ele>
        <time>2017-06-25T08:20:44Z</time>
      </trkpt>
      <trkpt lat="47.01503" lon="6.42626">
        <ele>936.01</ele>
        <time>2017-06-25T08:21:00Z</time>
      </trkpt>
      <trkpt lat="47.01475" lon="6.42568">
        <ele>936.206</ele>
        <time>2017-06-25T08:21:16Z</time>
      </trkpt>
      <trkpt lat="47.01456" lon="6.42528">
        <ele>935.528</ele>
        <time>2017-06-25T08:21:26Z</time>
      </trkpt>
      <trkpt lat="47.01433" lon="6.42479">
        <ele>933.963</ele>
        <time>2017-06-25T08:21:36Z</time>
      </trkpt>
      <trkpt lat="47.01419" lon="6.42444">
        <ele>933.844</ele>
        <time>2017-06-25T08:21:42Z</time>
      </trkpt>
      <trkpt lat="47.01411" lon="6.42419">
        <ele>932.924</ele>
        <time>2017-06-25T08:21:46Z</time>
      </trkpt>
      <trkpt lat="47.014" lon="6.42387">
        <ele>932.829</ele>
        <time>2017-06-25T08:21:51Z</time>
      </trkpt>
      <trkpt lat="47.01376" lon="6.42299">
        <ele>931.726</ele>
        <time>2017-06-25T08:22:04Z</time>
      </trkpt>
      <trkpt lat="47.01356" lon="6.42231">
        <ele>931.234</ele>
        <time>2017-06-25T08:22:15Z</time>
      </trkpt>
      <trkpt lat="47.0134" lon="6.42173">
        <ele>930.914</ele>
        <time>2017-06-25T08:22:27Z</time>
      </trkpt>
      <trkpt lat="47.01326" lon="6.42112">
        <ele>931.281</ele>
        <time>2017-06-25T08:22:38Z</time>
      </trkpt>
      <trkpt lat="47.01308" lon="6.42035">
        <ele>931.055</ele>
        <time>2017-06-25T08:22:52Z</time>
      </trkpt>
      <trkpt lat="47.013" lon="6.42016">
        <ele>930.647</ele>
        <time>2017-06-25T08:22:56Z</time>
      </trkpt>
      <trkpt lat="47.01269" lon="6.4196">
        <ele>930.044</ele>
        <time>2017-06-25T08:23:07Z</time>
      </trkpt>
      <trkpt lat="47.0126" lon="6.41947">
        <ele>929.575</ele>
        <time>2017-06-25T08:23:10Z</time>
      </trkpt>
      <trkpt lat="47.0123" lon="6.41894">
        <ele>929.299</ele>
        <time>2017-06-25T08:23:23Z</time>
      </trkpt>
      <trkpt lat="47.01199" lon="6.4183">
        <ele>929.237</ele>
        <time>2017-06-25T08:23:37Z</time>
      </trkpt>
      <trkpt lat="47.01183" lon="6.41788">
        <ele>929.955</ele>
        <time>2017-06-25T08:23:46Z</time>
      </trkpt>
      <trkpt lat="47.01176" lon="6.41732">
        <ele>930.042</ele>
        <time>2017-06-25T08:23:56Z</time>
      </trkpt>
      <trkpt lat="47.01165" lon="6.41672">
        <ele>929.411</ele>
        <time>2017-06-25T08:24:07Z</time>
      </trkpt>
      <trkpt lat="47.01154" lon="6.41606">
        <ele>929.484</ele>
        <time>2017-06-25T08:24:19Z</time>
      </trkpt>
      <trkpt lat="47.0115" lon="6.41577">
        <ele>929.505</ele>
        <time>2017-06-25T08:24:24Z</time>
      </trkpt>
      <trkpt lat="47.01138" lon="6.41526">
        <ele>929.792</ele>
        <time>2017-06-25T08:24:33Z</time>
      </trkpt>
      <trkpt lat="47.01121" lon="6.41453">
        <ele>930.753</ele>
        <time>2017-06-25T08:24:47Z</time>
      </trkpt>
      <trkpt lat="47.01114" lon="6.41415">
        <ele>930.674</ele>
        <time>2017-06-25T08:24:54Z</time>
      </trkpt>
      <trkpt lat="47.01111" lon="6.41367">
        <ele>929.185</ele>
        <time>2017-06-25T08:25:01Z</time>
      </trkpt>
      <trkpt lat="47.01095" lon="6.41325">
        <ele>928.519</ele>
        <time>2017-06-25T08:25:09Z</time>
      </trkpt>
      <trkpt lat="47.01069" lon="6.4126">
        <ele>928.789</ele>
        <time>2017-06-25T08:25:22Z</time>
      </trkpt>
      <trkpt lat="47.01038" lon="6.41185">
        <ele>926.687</ele>
        <time>2017-06-25T08:25:34Z</time>
      </trkpt>
      <trkpt lat="47.01004" lon="6.41107">
        <ele>924.17</ele>
        <time>2017-06-25T08:25:44Z</time>
      </trkpt>
      <trkpt lat="47.00997" lon="6.41067">
        <ele>923.462</ele>
        <time>2017-06-25T08:25:48Z</time>
      </trkpt>
      <trkpt lat="47.00999" lon="6.41008">
        <ele>924.498</ele>
        <time>2017-06-25T08:25:57Z</time>
      </trkpt>
      <trkpt lat="47.00997" lon="6.40993">
        <ele>925.802</ele>
        <time>2017-06-25T08:26:00Z</time>
      </trkpt>
      <trkpt lat="47.00986" lon="6.40953">
        <ele>927.974</ele>
        <time>2017-06-25T08:26:11Z</time>
      </trkpt>
      <trkpt lat="47.00963" lon="6.40916">
        <ele>930.172</ele>
        <time>2017-06-25T08:26:26Z</time>
      </trkpt>
      <trkpt lat="47.00962" lon="6.40916">
        <ele>930.019</ele>
        <time>2017-06-25T08:26:33Z</time>
      </trkpt>
      <trkpt lat="47.00964" lon="6.40916">
        <ele>929.692</ele>
        <time>2017-06-25T08:27:51Z</time>
      </trkpt>
      <trkpt lat="47.00962" lon="6.40914">
        <ele>929.846</ele>
        <time>2017-06-25T08:28:11Z</time>
      </trkpt>
      <trkpt lat="47.00945" lon="6.409">
        <ele>932.797</ele>
        <time>2017-06-25T08:28:25Z</time>
      </trkpt>
      <trkpt lat="47.00922" lon="6.40883">
        <ele>934.581</ele>
        <time>2017-06-25T08:28:41Z</time>
      </trkpt>
      <trkpt lat="47.00903" lon="6.40868">
        <ele>937.476</ele>
        <time>2017-06-25T08:28:54Z</time>
      </trkpt>
      <trkpt lat="47.00886" lon="6.40855">
        <ele>939.164</ele>
        <time>2017-06-25T08:29:06Z</time>
      </trkpt>
      <trkpt lat="47.00866" lon="6.40841">
        <ele>941.029</ele>
        <time>2017-06-25T08:29:19Z</time>
      </trkpt>
      <trkpt lat="47.00849" lon="6.40827">
        <ele>943.075</ele>
        <time>2017-06-25T08:29:31Z</time>
      </trkpt>
      <trkpt lat="47.00829" lon="6.40815">
        <ele>943.791</ele>
        <time>2017-06-25T08:29:44Z</time>
      </trkpt>
      <trkpt lat="47.00811" lon="6.40811">
        <ele>946.805</ele>
        <time>2017-06-25T08:29:59Z</time>
      </trkpt>
      <trkpt lat="47.00803" lon="6.40817">
        <ele>947.549</ele>
        <time>2017-06-25T08:30:42Z</time>
      </trkpt>
      <trkpt lat="47.00788" lon="6.40832">
        <ele>950.541</ele>
        <time>2017-06-25T08:30:58Z</time>
      </trkpt>
      <trkpt lat="47.0078" lon="6.40836">
        <ele>953.653</ele>
        <time>2017-06-25T08:31:08Z</time>
      </trkpt>
      <trkpt lat="47.00771" lon="6.40839">
        <ele>955.328</ele>
        <time>2017-06-25T08:31:17Z</time>
      </trkpt>
      <trkpt lat="47.00756" lon="6.40834">
        <ele>956.37</ele>
        <time>2017-06-25T08:31:31Z</time>
      </trkpt>
      <trkpt lat="47.00746" lon="6.40822">
        <ele>956.466</ele>
        <time>2017-06-25T08:31:43Z</time>
      </trkpt>
      <trkpt lat="47.00741" lon="6.40796">
        <ele>955.866</ele>
        <time>2017-06-25T08:31:53Z</time>
      </trkpt>
      <trkpt lat="47.0074" lon="6.40777">
        <ele>953.922</ele>
        <time>2017-06-25T08:31:58Z</time>
      </trkpt>
      <trkpt lat="47.0074" lon="6.40759">
        <ele>951.285</ele>
        <time>2017-06-25T08:32:02Z</time>
      </trkpt>
      <trkpt lat="47.00741" lon="6.40734">
        <ele>949.056</ele>
        <time>2017-06-25T08:32:07Z</time>
      </trkpt>
      <trkpt lat="47.00742" lon="6.40697">
        <ele>945.836</ele>
        <time>2017-06-25T08:32:14Z</time>
      </trkpt>
      <trkpt lat="47.00742" lon="6.40692">
        <ele>945.721</ele>
        <time>2017-06-25T08:32:15Z</time>
      </trkpt>
      <trkpt lat="47.00741" lon="6.40652">
        <ele>942.687</ele>
        <time>2017-06-25T08:32:22Z</time>
      </trkpt>
      <trkpt lat="47.0074" lon="6.40646">
        <ele>942.537</ele>
        <time>2017-06-25T08:32:23Z</time>
      </trkpt>
      <trkpt lat="47.00735" lon="6.40618">
        <ele>940.176</ele>
        <time>2017-06-25T08:32:28Z</time>
      </trkpt>
      <trkpt lat="47.00715" lon="6.40583">
        <ele>939.336</ele>
        <time>2017-06-25T08:32:36Z</time>
      </trkpt>
      <trkpt lat="47.00698" lon="6.4055">
        <ele>940.242</ele>
        <time>2017-06-25T08:32:49Z</time>
      </trkpt>
      <trkpt lat="47.00681" lon="6.40541">
        <ele>941.898</ele>
        <time>2017-06-25T08:33:01Z</time>
      </trkpt>
      <trkpt lat="47.00679" lon="6.40545">
        <ele>942.315</ele>
        <time>2017-06-25T08:33:05Z</time>
      </trkpt>
      <trkpt lat="47.00676" lon="6.4055">
        <ele>943.343</ele>
        <time>2017-06-25T08:33:17Z</time>
      </trkpt>
      <trkpt lat="47.00675" lon="6.40553">
        <ele>944.618</ele>
        <time>2017-06-25T08:34:20Z</time>
      </trkpt>
      <trkpt lat="47.00673" lon="6.40568">
        <ele>945.067</ele>
        <time>2017-06-25T08:34:33Z</time>
      </trkpt>
      <trkpt lat="47.0067" lon="6.40583">
        <ele>946.962</ele>
        <time>2017-06-25T08:34:45Z</time>
      </trkpt>
      <trkpt lat="47.00669" lon="6.40589">
        <ele>947.774</ele>
        <time>2017-06-25T08:34:49Z</time>
      </trkpt>
      <trkpt lat="47.0067" lon="6.40612">
        <ele>949.354</ele>
        <time>2017-06-25T08:35:00Z</time>
      </trkpt>
      <trkpt lat="47.00675" lon="6.40637">
        <ele>950.841</ele>
        <time>2017-06-25T08:35:12Z</time>
      </trkpt>
      <trkpt lat="47.00674" lon="6.40657">
        <ele>953.858</ele>
        <time>2017-06-25T08:35:24Z</time>
      </trkpt>
      <trkpt lat="47.00671" lon="6.40667">
        <ele>955.855</ele>
        <time>2017-06-25T08:35:38Z</time>
      </trkpt>
      <trkpt lat="47.00666" lon="6.40669">
        <ele>957.509</ele>
        <time>2017-06-25T08:35:46Z</time>
      </trkpt>
      <trkpt lat="47.00659" lon="6.40665">
        <ele>958.732</ele>
        <time>2017-06-25T08:35:57Z</time>
      </trkpt>
      <trkpt lat="47.00651" lon="6.4066">
        <ele>960.151</ele>
        <time>2017-06-25T08:36:11Z</time>
      </trkpt>
      <trkpt lat="47.00645" lon="6.40655">
        <ele>962.304</ele>
        <time>2017-06-25T08:36:23Z</time>
      </trkpt>
      <trkpt lat="47.00639" lon="6.4065">
        <ele>964.788</ele>
        <time>2017-06-25T08:36:36Z</time>
      </trkpt>
      <trkpt lat="47.00632" lon="6.40643">
        <ele>967.031</ele>
        <time>2017-06-25T08:36:50Z</time>
      </trkpt>
      <trkpt lat="47.00622" lon="6.40634">
        <ele>969.406</ele>
        <time>2017-06-25T08:37:05Z</time>
      </trkpt>
      <trkpt lat="47.00614" lon="6.40626">
        <ele>970.777</ele>
        <time>2017-06-25T08:37:17Z</time>
      </trkpt>
      <trkpt lat="47.00604" lon="6.40615">
        <ele>971.715</ele>
        <time>2017-06-25T08:37:29Z</time>
      </trkpt>
      <trkpt lat="47.00592" lon="6.40606">
        <ele>973.427</ele>
        <time>2017-06-25T08:37:43Z</time>
      </trkpt>
      <trkpt lat="47.00583" lon="6.40599">
        <ele>974.375</ele>
        <time>2017-06-25T08:37:55Z</time>
      </trkpt>
      <trkpt lat="47.00574" lon="6.40591">
        <ele>976.598</ele>
        <time>2017-06-25T08:38:09Z</time>
      </trkpt>
      <trkpt lat="47.00568" lon="6.40587">
        <ele>978.833</ele>
        <time>2017-06-25T08:38:20Z</time>
      </trkpt>
      <trkpt lat="47.0056" lon="6.40583">
        <ele>980.547</ele>
        <time>2017-06-25T08:38:31Z</time>
      </trkpt>
      <trkpt lat="47.00551" lon="6.4058">
        <ele>981.796</ele>
        <time>2017-06-25T08:38:42Z</time>
      </trkpt>
      <trkpt lat="47.00543" lon="6.40578">
        <ele>981.628</ele>
        <time>2017-06-25T08:38:52Z</time>
      </trkpt>
      <trkpt lat="47.00536" lon="6.40577">
        <ele>983.52</ele>
        <time>2017-06-25T08:39:01Z</time>
      </trkpt>
      <trkpt lat="47.00531" lon="6.40576">
        <ele>984.682</ele>
        <time>2017-06-25T08:39:12Z</time>
      </trkpt>
      <trkpt lat="47.00528" lon="6.40575">
        <ele>985.224</ele>
        <time>2017-06-25T08:39:39Z</time>
      </trkpt>
      <trkpt lat="47.00523" lon="6.40575">
        <ele>985.672</ele>
        <time>2017-06-25T08:39:56Z</time>
      </trkpt>
      <trkpt lat="47.00518" lon="6.40574">
        <ele>987.079</ele>
        <time>2017-06-25T08:40:06Z</time>
      </trkpt>
      <trkpt lat="47.00511" lon="6.40572">
        <ele>988.322</ele>
        <time>2017-06-25T08:40:17Z</time>
      </trkpt>
      <trkpt lat="47.00496" lon="6.40567">
        <ele>990.228</ele>
        <time>2017-06-25T08:40:33Z</time>
      </trkpt>
      <trkpt lat="47.00489" lon="6.40563">
        <ele>990.673</ele>
        <time>2017-06-25T08:40:42Z</time>
      </trkpt>
      <trkpt lat="47.00479" lon="6.40557">
        <ele>991.063</ele>
        <time>2017-06-25T08:40:53Z</time>
      </trkpt>
      <trkpt lat="47.0047" lon="6.4055">
        <ele>992.294</ele>
        <time>2017-06-25T08:41:04Z</time>
      </trkpt>
      <trkpt lat="47.00458" lon="6.40544">
        <ele>995.095</ele>
        <time>2017-06-25T08:41:16Z</time>
      </trkpt>
      <trkpt lat="47.0045" lon="6.4054">
        <ele>997.569</ele>
        <time>2017-06-25T08:41:25Z</time>
      </trkpt>
      <trkpt lat="47.00442" lon="6.40537">
        <ele>998.51</ele>
        <time>2017-06-25T08:41:34Z</time>
      </trkpt>
      <trkpt lat="47.00429" lon="6.40536">
        <ele>999.274</ele>
        <time>2017-06-25T08:41:48Z</time>
      </trkpt>
      <trkpt lat="47.00423" lon="6.40538">
        <ele>999.368</ele>
        <time>2017-06-25T08:41:55Z</time>
      </trkpt>
      <trkpt lat="47.00412" lon="6.40545">
        <ele>1002.667</ele>
        <time>2017-06-25T08:42:06Z</time>
      </trkpt>
      <trkpt lat="47.00412" lon="6.40547">
        <ele>1002.592</ele>
        <time>2017-06-25T08:42:16Z</time>
      </trkpt>
      <trkpt lat="47.00408" lon="6.40553">
        <ele>1003.542</ele>
        <time>2017-06-25T08:42:29Z</time>
      </trkpt>
      <trkpt lat="47.00417" lon="6.40549">
        <ele>1002.877</ele>
        <time>2017-06-25T08:42:47Z</time>
      </trkpt>
      <trkpt lat="47.00408" lon="6.40555">
        <ele>1003.34</ele>
        <time>2017-06-25T08:43:19Z</time>
      </trkpt>
      <trkpt lat="47.00407" lon="6.40554">
        <ele>1004.527</ele>
        <time>2017-06-25T08:43:29Z</time>
      </trkpt>
      <trkpt lat="47.00408" lon="6.40555">
        <ele>1003.628</ele>
        <time>2017-06-25T08:43:32Z</time>
      </trkpt>
      <trkpt lat="47.00411" lon="6.4056">
        <ele>1004.873</ele>
        <time>2017-06-25T08:43:36Z</time>
      </trkpt>
      <trkpt lat="47.00419" lon="6.40585">
        <ele>1004.838</ele>
        <time>2017-06-25T08:43:50Z</time>
      </trkpt>
      <trkpt lat="47.00425" lon="6.406">
        <ele>1007.261</ele>
        <time>2017-06-25T08:44:01Z</time>
      </trkpt>
      <trkpt lat="47.00425" lon="6.40602">
        <ele>1007.274</ele>
        <time>2017-06-25T08:44:02Z</time>
      </trkpt>
      <trkpt lat="47.00427" lon="6.40606">
        <ele>1007.607</ele>
        <time>2017-06-25T08:44:07Z</time>
      </trkpt>
      <trkpt lat="47.00435" lon="6.4062">
        <ele>1009.357</ele>
        <time>2017-06-25T08:44:18Z</time>
      </trkpt>
      <trkpt lat="47.00445" lon="6.4064">
        <ele>1010.309</ele>
        <time>2017-06-25T08:44:32Z</time>
      </trkpt>
      <trkpt lat="47.00453" lon="6.40659">
        <ele>1011.15</ele>
        <time>2017-06-25T08:44:44Z</time>
      </trkpt>
      <trkpt lat="47.00458" lon="6.40675">
        <ele>1012.243</ele>
        <time>2017-06-25T08:44:56Z</time>
      </trkpt>
      <trkpt lat="47.00467" lon="6.40693">
        <ele>1012.668</ele>
        <time>2017-06-25T08:45:08Z</time>
      </trkpt>
      <trkpt lat="47.00479" lon="6.40715">
        <ele>1015.042</ele>
        <time>2017-06-25T08:45:24Z</time>
      </trkpt>
      <trkpt lat="47.00491" lon="6.40738">
        <ele>1015.97</ele>
        <time>2017-06-25T08:45:38Z</time>
      </trkpt>
      <trkpt lat="47.00502" lon="6.40758">
        <ele>1016.775</ele>
        <time>2017-06-25T08:45:50Z</time>
      </trkpt>
      <trkpt lat="47.00511" lon="6.40774">
        <ele>1017.519</ele>
        <time>2017-06-25T08:46:00Z</time>
      </trkpt>
      <trkpt lat="47.00521" lon="6.40795">
        <ele>1019.536</ele>
        <time>2017-06-25T08:46:14Z</time>
      </trkpt>
      <trkpt lat="47.00534" lon="6.40823">
        <ele>1020.71</ele>
        <time>2017-06-25T08:46:29Z</time>
      </trkpt>
      <trkpt lat="47.0055" lon="6.40864">
        <ele>1021.883</ele>
        <time>2017-06-25T08:46:46Z</time>
      </trkpt>
      <trkpt lat="47.00561" lon="6.40896">
        <ele>1021.183</ele>
        <time>2017-06-25T08:46:58Z</time>
      </trkpt>
      <trkpt lat="47.00573" lon="6.40931">
        <ele>1022.807</ele>
        <time>2017-06-25T08:47:11Z</time>
      </trkpt>
      <trkpt lat="47.00582" lon="6.4096">
        <ele>1024.612</ele>
        <time>2017-06-25T08:47:22Z</time>
      </trkpt>
      <trkpt lat="47.00588" lon="6.40982">
        <ele>1025.573</ele>
        <time>2017-06-25T08:47:33Z</time>
      </trkpt>
      <trkpt lat="47.00591" lon="6.41001">
        <ele>1027.375</ele>
        <time>2017-06-25T08:47:43Z</time>
      </trkpt>
      <trkpt lat="47.00591" lon="6.41015">
        <ele>1029.003</ele>
        <time>2017-06-25T08:47:50Z</time>
      </trkpt>
      <trkpt lat="47.00591" lon="6.41039">
        <ele>1030.363</ele>
        <time>2017-06-25T08:48:01Z</time>
      </trkpt>
      <trkpt lat="47.00591" lon="6.41065">
        <ele>1031.813</ele>
        <time>2017-06-25T08:48:13Z</time>
      </trkpt>
      <trkpt lat="47.0059" lon="6.41071">
        <ele>1031.837</ele>
        <time>2017-06-25T08:48:16Z</time>
      </trkpt>
      <trkpt lat="47.00587" lon="6.41094">
        <ele>1033.348</ele>
        <time>2017-06-25T08:48:28Z</time>
      </trkpt>
      <trkpt lat="47.00582" lon="6.41117">
        <ele>1034.522</ele>
        <time>2017-06-25T08:48:41Z</time>
      </trkpt>
      <trkpt lat="47.00576" lon="6.41142">
        <ele>1036.378</ele>
        <time>2017-06-25T08:48:53Z</time>
      </trkpt>
      <trkpt lat="47.00564" lon="6.41164">
        <ele>1037.53</ele>
        <time>2017-06-25T08:49:08Z</time>
      </trkpt>
      <trkpt lat="47.00553" lon="6.4118">
        <ele>1038.838</ele>
        <time>2017-06-25T08:49:20Z</time>
      </trkpt>
      <trkpt lat="47.00541" lon="6.41194">
        <ele>1040.628</ele>
        <time>2017-06-25T08:49:33Z</time>
      </trkpt>
      <trkpt lat="47.00523" lon="6.41211">
        <ele>1042.305</ele>
        <time>2017-06-25T08:49:50Z</time>
      </trkpt>
      <trkpt lat="47.00506" lon="6.4123">
        <ele>1042.221</ele>
        <time>2017-06-25T08:50:07Z</time>
      </trkpt>
      <trkpt lat="47.00486" lon="6.41251">
        <ele>1044.878</ele>
        <time>2017-06-25T08:50:24Z</time>
      </trkpt>
      <trkpt lat="47.00468" lon="6.41268">
        <ele>1047.412</ele>
        <time>2017-06-25T08:50:39Z</time>
      </trkpt>
      <trkpt lat="47.00455" lon="6.41282">
        <ele>1047.785</ele>
        <time>2017-06-25T08:50:50Z</time>
      </trkpt>
      <trkpt lat="47.00443" lon="6.413">
        <ele>1047.158</ele>
        <time>2017-06-25T08:51:03Z</time>
      </trkpt>
      <trkpt lat="47.00439" lon="6.41307">
        <ele>1046.504</ele>
        <time>2017-06-25T08:51:06Z</time>
      </trkpt>
      <trkpt lat="47.00428" lon="6.4135">
        <ele>1044.035</ele>
        <time>2017-06-25T08:51:18Z</time>
      </trkpt>
      <trkpt lat="47.00429" lon="6.41371">
        <ele>1042.587</ele>
        <time>2017-06-25T08:51:23Z</time>
      </trkpt>
      <trkpt lat="47.00421" lon="6.41401">
        <ele>1039.772</ele>
        <time>2017-06-25T08:51:29Z</time>
      </trkpt>
      <trkpt lat="47.00418" lon="6.41439">
        <ele>1039.795</ele>
        <time>2017-06-25T08:51:37Z</time>
      </trkpt>
      <trkpt lat="47.00407" lon="6.41468">
        <ele>1041.493</ele>
        <time>2017-06-25T08:51:48Z</time>
      </trkpt>
      <trkpt lat="47.00383" lon="6.41499">
        <ele>1041.831</ele>
        <time>2017-06-25T08:52:01Z</time>
      </trkpt>
      <trkpt lat="47.00357" lon="6.41518">
        <ele>1039.458</ele>
        <time>2017-06-25T08:52:12Z</time>
      </trkpt>
      <trkpt lat="47.00358" lon="6.41519">
        <ele>1038.804</ele>
        <time>2017-06-25T08:52:25Z</time>
      </trkpt>
      <trkpt lat="47.00356" lon="6.41521">
        <ele>1038.952</ele>
        <time>2017-06-25T08:52:58Z</time>
      </trkpt>
      <trkpt lat="47.0033" lon="6.41542">
        <ele>1038.213</ele>
        <time>2017-06-25T08:53:07Z</time>
      </trkpt>
      <trkpt lat="47.00284" lon="6.41589">
        <ele>1035.17</ele>
        <time>2017-06-25T08:53:18Z</time>
      </trkpt>
      <trkpt lat="47.00236" lon="6.41633">
        <ele>1032.92</ele>
        <time>2017-06-25T08:53:30Z</time>
      </trkpt>
      <trkpt lat="47.00214" lon="6.41651">
        <ele>1031.514</ele>
        <time>2017-06-25T08:53:37Z</time>
      </trkpt>
      <trkpt lat="47.00211" lon="6.4165">
        <ele>1030.907</ele>
        <time>2017-06-25T08:53:43Z</time>
      </trkpt>
      <trkpt lat="47.00232" lon="6.4164">
        <ele>1032.209</ele>
        <time>2017-06-25T08:53:54Z</time>
      </trkpt>
      <trkpt lat="47.00236" lon="6.41637">
        <ele>1032.614</ele>
        <time>2017-06-25T08:54:03Z</time>
      </trkpt>
      <trkpt lat="47.00236" lon="6.41635">
        <ele>1032.351</ele>
        <time>2017-06-25T08:54:12Z</time>
      </trkpt>
      <trkpt lat="47.00236" lon="6.41635">
        <ele>1031.434</ele>
        <time>2017-06-25T08:54:26Z</time>
      </trkpt>
      <trkpt lat="47.00236" lon="6.41636">
        <ele>1031.78</ele>
        <time>2017-06-25T08:55:31Z</time>
      </trkpt>
      <trkpt lat="47.00238" lon="6.41635">
        <ele>1031.724</ele>
        <time>2017-06-25T08:55:46Z</time>
      </trkpt>
      <trkpt lat="47.00238" lon="6.41636">
        <ele>1032.647</ele>
        <time>2017-06-25T08:55:56Z</time>
      </trkpt>
      <trkpt lat="47.00233" lon="6.41642">
        <ele>1032.586</ele>
        <time>2017-06-25T08:56:01Z</time>
      </trkpt>
      <trkpt lat="47.00202" lon="6.41658">
        <ele>1031.337</ele>
        <time>2017-06-25T08:56:11Z</time>
      </trkpt>
      <trkpt lat="47.00187" lon="6.41666">
        <ele>1029.478</ele>
        <time>2017-06-25T08:56:14Z</time>
      </trkpt>
      <trkpt lat="47.00135" lon="6.41711">
        <ele>1028.397</ele>
        <time>2017-06-25T08:56:25Z</time>
      </trkpt>
      <trkpt lat="47.00084" lon="6.41739">
        <ele>1026.579</ele>
        <time>2017-06-25T08:56:37Z</time>
      </trkpt>
      <trkpt lat="47.00079" lon="6.41771">
        <ele>1025.124</ele>
        <time>2017-06-25T08:56:43Z</time>
      </trkpt>
      <trkpt lat="47.00075" lon="6.41874">
        <ele>1022.008</ele>
        <time>2017-06-25T08:56:58Z</time>
      </trkpt>
      <trkpt lat="47.00078" lon="6.41964">
        <ele>1020.51</ele>
        <time>2017-06-25T08:57:11Z</time>
      </trkpt>
      <trkpt lat="47.00101" lon="6.42053">
        <ele>1018.321</ele>
        <time>2017-06-25T08:57:23Z</time>
      </trkpt>
      <trkpt lat="47.00104" lon="6.42095">
        <ele>1018.48</ele>
        <time>2017-06-25T08:57:27Z</time>
      </trkpt>
      <trkpt lat="47.00102" lon="6.42113">
        <ele>1019.038</ele>
        <time>2017-06-25T08:57:29Z</time>
      </trkpt>
      <trkpt lat="47.00108" lon="6.42153">
        <ele>1019.664</ele>
        <time>2017-06-25T08:57:37Z</time>
      </trkpt>
      <trkpt lat="47.00131" lon="6.42211">
        <ele>1020.718</ele>
        <time>2017-06-25T08:57:52Z</time>
      </trkpt>
      <trkpt lat="47.00154" lon="6.42255">
        <ele>1019.533</ele>
        <time>2017-06-25T08:58:03Z</time>
      </trkpt>
      <trkpt lat="47.00174" lon="6.42309">
        <ele>1020.178</ele>
        <time>2017-06-25T08:58:14Z</time>
      </trkpt>
      <trkpt lat="47.00188" lon="6.42394">
        <ele>1023.04</ele>
        <time>2017-06-25T08:58:31Z</time>
      </trkpt>
      <trkpt lat="47.00207" lon="6.42466">
        <ele>1024.398</ele>
        <time>2017-06-25T08:58:47Z</time>
      </trkpt>
      <trkpt lat="47.00205" lon="6.42509">
        <ele>1023.899</ele>
        <time>2017-06-25T08:58:57Z</time>
      </trkpt>
      <trkpt lat="47.00199" lon="6.42525">
        <ele>1023.379</ele>
        <time>2017-06-25T08:59:00Z</time>
      </trkpt>
      <trkpt lat="47.00204" lon="6.42572">
        <ele>1021.969</ele>
        <time>2017-06-25T08:59:08Z</time>
      </trkpt>
      <trkpt lat="47.00206" lon="6.42577">
        <ele>1021.612</ele>
        <time>2017-06-25T08:59:16Z</time>
      </trkpt>
      <trkpt lat="47.00214" lon="6.42579">
        <ele>1021.748</ele>
        <time>2017-06-25T08:59:44Z</time>
      </trkpt>
      <trkpt lat="47.00249" lon="6.42563">
        <ele>1022.146</ele>
        <time>2017-06-25T08:59:55Z</time>
      </trkpt>
      <trkpt lat="47.00299" lon="6.42544">
        <ele>1020.865</ele>
        <time>2017-06-25T09:00:09Z</time>
      </trkpt>
      <trkpt lat="47.00336" lon="6.42542">
        <ele>1020.011</ele>
        <time>2017-06-25T09:00:19Z</time>
      </trkpt>
      <trkpt lat="47.00367" lon="6.42539">
        <ele>1020.648</ele>
        <time>2017-06-25T09:00:28Z</time>
      </trkpt>
      <trkpt lat="47.00393" lon="6.4253">
        <ele>1021.25</ele>
        <time>2017-06-25T09:00:36Z</time>
      </trkpt>
      <trkpt lat="47.00434" lon="6.42516">
        <ele>1022.555</ele>
        <time>2017-06-25T09:00:47Z</time>
      </trkpt>
      <trkpt lat="47.00459" lon="6.42506">
        <ele>1021.873</ele>
        <time>2017-06-25T09:00:57Z</time>
      </trkpt>
      <trkpt lat="47.00461" lon="6.42505">
        <ele>1022.501</ele>
        <time>2017-06-25T09:01:12Z</time>
      </trkpt>
      <trkpt lat="47.00462" lon="6.42504">
        <ele>1022.794</ele>
        <time>2017-06-25T09:01:41Z</time>
      </trkpt>
      <trkpt lat="47.00474" lon="6.42495">
        <ele>1024.312</ele>
        <time>2017-06-25T09:01:50Z</time>
      </trkpt>
      <trkpt lat="47.00507" lon="6.42464">
        <ele>1026.477</ele>
        <time>2017-06-25T09:02:07Z</time>
      </trkpt>
      <trkpt lat="47.00522" lon="6.4243">
        <ele>1028.022</ele>
        <time>2017-06-25T09:02:20Z</time>
      </trkpt>
      <trkpt lat="47.00522" lon="6.42422">
        <ele>1029.547</ele>
        <time>2017-06-25T09:02:23Z</time>
      </trkpt>
      <trkpt lat="47.00512" lon="6.42384">
        <ele>1032.65</ele>
        <time>2017-06-25T09:02:37Z</time>
      </trkpt>
      <trkpt lat="47.00503" lon="6.42355">
        <ele>1035.116</ele>
        <time>2017-06-25T09:02:50Z</time>
      </trkpt>
      <trkpt lat="47.00509" lon="6.42347">
        <ele>1034.962</ele>
        <time>2017-06-25T09:02:56Z</time>
      </trkpt>
      <trkpt lat="47.00529" lon="6.42324">
        <ele>1035.12</ele>
        <time>2017-06-25T09:03:09Z</time>
      </trkpt>
      <trkpt lat="47.00538" lon="6.42306">
        <ele>1035.09</ele>
        <time>2017-06-25T09:03:20Z</time>
      </trkpt>
      <trkpt lat="47.00539" lon="6.42306">
        <ele>1034.103</ele>
        <time>2017-06-25T09:03:44Z</time>
      </trkpt>
      <trkpt lat="47.00542" lon="6.42311">
        <ele>1033.981</ele>
        <time>2017-06-25T09:03:55Z</time>
      </trkpt>
      <trkpt lat="47.00545" lon="6.42312">
        <ele>1033.579</ele>
        <time>2017-06-25T09:04:05Z</time>
      </trkpt>
      <trkpt lat="47.00551" lon="6.42306">
        <ele>1033.3</ele>
        <time>2017-06-25T09:04:18Z</time>
      </trkpt>
      <trkpt lat="47.00553" lon="6.42301">
        <ele>1033.195</ele>
        <time>2017-06-25T09:04:28Z</time>
      </trkpt>
      <trkpt lat="47.00559" lon="6.42289">
        <ele>1031.822</ele>
        <time>2017-06-25T09:04:41Z</time>
      </trkpt>
      <trkpt lat="47.00563" lon="6.42281">
        <ele>1030.783</ele>
        <time>2017-06-25T09:04:53Z</time>
      </trkpt>
      <trkpt lat="47.00567" lon="6.42272">
        <ele>1030.552</ele>
        <time>2017-06-25T09:05:03Z</time>
      </trkpt>
      <trkpt lat="47.00585" lon="6.42256">
        <ele>1030.2</ele>
        <time>2017-06-25T09:05:22Z</time>
      </trkpt>
      <trkpt lat="47.00591" lon="6.4225">
        <ele>1030.219</ele>
        <time>2017-06-25T09:05:34Z</time>
      </trkpt>
      <trkpt lat="47.0059" lon="6.42248">
        <ele>1030.543</ele>
        <time>2017-06-25T09:05:44Z</time>
      </trkpt>
      <trkpt lat="47.00591" lon="6.42247">
        <ele>1030.894</ele>
        <time>2017-06-25T09:05:49Z</time>
      </trkpt>
      <trkpt lat="47.00602" lon="6.42239">
        <ele>1031.599</ele>
        <time>2017-06-25T09:06:03Z</time>
      </trkpt>
      <trkpt lat="47.00611" lon="6.42231">
        <ele>1032.349</ele>
        <time>2017-06-25T09:06:17Z</time>
      </trkpt>
      <trkpt lat="47.00611" lon="6.4223">
        <ele>1032.182</ele>
        <time>2017-06-25T09:06:34Z</time>
      </trkpt>
      <trkpt lat="47.00612" lon="6.4223">
        <ele>1032.119</ele>
        <time>2017-06-25T09:06:36Z</time>
      </trkpt>
      <trkpt lat="47.00626" lon="6.4224">
        <ele>1031.989</ele>
        <time>2017-06-25T09:06:50Z</time>
      </trkpt>
      <trkpt lat="47.00645" lon="6.42261">
        <ele>1031.513</ele>
        <time>2017-06-25T09:07:06Z</time>
      </trkpt>
      <trkpt lat="47.00661" lon="6.42274">
        <ele>1032.218</ele>
        <time>2017-06-25T09:07:20Z</time>
      </trkpt>
      <trkpt lat="47.00681" lon="6.42278">
        <ele>1033.779</ele>
        <time>2017-06-25T09:07:35Z</time>
      </trkpt>
      <trkpt lat="47.00695" lon="6.42289">
        <ele>1033.713</ele>
        <time>2017-06-25T09:07:47Z</time>
      </trkpt>
      <trkpt lat="47.00715" lon="6.42301">
        <ele>1034.214</ele>
        <time>2017-06-25T09:08:02Z</time>
      </trkpt>
      <trkpt lat="47.00736" lon="6.42307">
        <ele>1034.983</ele>
        <time>2017-06-25T09:08:20Z</time>
      </trkpt>
      <trkpt lat="47.00737" lon="6.42307">
        <ele>1036.271</ele>
        <time>2017-06-25T09:08:21Z</time>
      </trkpt>
      <trkpt lat="47.00753" lon="6.42312">
        <ele>1037.351</ele>
        <time>2017-06-25T09:08:36Z</time>
      </trkpt>
      <trkpt lat="47.00762" lon="6.4232">
        <ele>1037.339</ele>
        <time>2017-06-25T09:08:44Z</time>
      </trkpt>
      <trkpt lat="47.00769" lon="6.42324">
        <ele>1036.81</ele>
        <time>2017-06-25T09:08:50Z</time>
      </trkpt>
      <trkpt lat="47.00781" lon="6.42324">
        <ele>1037.057</ele>
        <time>2017-06-25T09:09:02Z</time>
      </trkpt>
      <trkpt lat="47.00787" lon="6.42326">
        <ele>1036.486</ele>
        <time>2017-06-25T09:09:17Z</time>
      </trkpt>
      <trkpt lat="47.00796" lon="6.42336">
        <ele>1036.868</ele>
        <time>2017-06-25T09:09:27Z</time>
      </trkpt>
      <trkpt lat="47.00804" lon="6.4234">
        <ele>1036.696</ele>
        <time>2017-06-25T09:09:39Z</time>
      </trkpt>
      <trkpt lat="47.00804" lon="6.42338">
        <ele>1036.675</ele>
        <time>2017-06-25T09:09:45Z</time>
      </trkpt>
      <trkpt lat="47.00804" lon="6.42336">
        <ele>1036.003</ele>
        <time>2017-06-25T09:09:58Z</time>
      </trkpt>
      <trkpt lat="47.00804" lon="6.42332">
        <ele>1035.001</ele>
        <time>2017-06-25T09:11:43Z</time>
      </trkpt>
      <trkpt lat="47.00807" lon="6.42332">
        <ele>1037.037</ele>
        <time>2017-06-25T09:12:33Z</time>
      </trkpt>
      <trkpt lat="47.00807" lon="6.42334">
        <ele>1036.925</ele>
        <time>2017-06-25T09:12:44Z</time>
      </trkpt>
      <trkpt lat="47.00807" lon="6.42336">
        <ele>1036.503</ele>
        <time>2017-06-25T09:12:56Z</time>
      </trkpt>
      <trkpt lat="47.00806" lon="6.42338">
        <ele>1036.468</ele>
        <time>2017-06-25T09:13:02Z</time>
      </trkpt>
      <trkpt lat="47.00813" lon="6.42349">
        <ele>1035.54</ele>
        <time>2017-06-25T09:13:15Z</time>
      </trkpt>
      <trkpt lat="47.00817" lon="6.42351">
        <ele>1035.911</ele>
        <time>2017-06-25T09:13:26Z</time>
      </trkpt>
      <trkpt lat="47.00818" lon="6.42351">
        <ele>1035.382</ele>
        <time>2017-06-25T09:13:41Z</time>
      </trkpt>
      <trkpt lat="47.00816" lon="6.42351">
        <ele>1035.443</ele>
        <time>2017-06-25T09:13:52Z</time>
      </trkpt>
      <trkpt lat="47.00817" lon="6.4235">
        <ele>1034.87</ele>
        <time>2017-06-25T09:14:01Z</time>
      </trkpt>
      <trkpt lat="47.00819" lon="6.4235">
        <ele>1035.247</ele>
        <time>2017-06-25T09:14:17Z</time>
      </trkpt>
      <trkpt lat="47.00822" lon="6.42348">
        <ele>1035.523</ele>
        <time>2017-06-25T09:14:30Z</time>
      </trkpt>
      <trkpt lat="47.00824" lon="6.42344">
        <ele>1035.667</ele>
        <time>2017-06-25T09:14:42Z</time>
      </trkpt>
      <trkpt lat="47.0083" lon="6.42343">
        <ele>1035.255</ele>
        <time>2017-06-25T09:14:53Z</time>
      </trkpt>
      <trkpt lat="47.00836" lon="6.42341">
        <ele>1035.464</ele>
        <time>2017-06-25T09:15:04Z</time>
      </trkpt>
      <trkpt lat="47.00844" lon="6.4234">
        <ele>1036.437</ele>
        <time>2017-06-25T09:15:17Z</time>
      </trkpt>
      <trkpt lat="47.00854" lon="6.42338">
        <ele>1036.863</ele>
        <time>2017-06-25T09:15:27Z</time>
      </trkpt>
      <trkpt lat="47.00864" lon="6.42335">
        <ele>1037.731</ele>
        <time>2017-06-25T09:15:36Z</time>
      </trkpt>
      <trkpt lat="47.00875" lon="6.42333">
        <ele>1037.368</ele>
        <time>2017-06-25T09:15:44Z</time>
      </trkpt>
      <trkpt lat="47.00887" lon="6.42331">
        <ele>1035.615</ele>
        <time>2017-06-25T09:15:54Z</time>
      </trkpt>
      <trkpt lat="47.009" lon="6.42333">
        <ele>1035.469</ele>
        <time>2017-06-25T09:16:02Z</time>
      </trkpt>
      <trkpt lat="47.00905" lon="6.42336">
        <ele>1034.496</ele>
        <time>2017-06-25T09:16:06Z</time>
      </trkpt>
      <trkpt lat="47.00916" lon="6.42341">
        <ele>1033.344</ele>
        <time>2017-06-25T09:16:17Z</time>
      </trkpt>
      <trkpt lat="47.00929" lon="6.42347">
        <ele>1032.361</ele>
        <time>2017-06-25T09:16:26Z</time>
      </trkpt>
      <trkpt lat="47.00951" lon="6.42359">
        <ele>1031.973</ele>
        <time>2017-06-25T09:16:38Z</time>
      </trkpt>
      <trkpt lat="47.0097" lon="6.42359">
        <ele>1031.344</ele>
        <time>2017-06-25T09:16:48Z</time>
      </trkpt>
      <trkpt lat="47.00984" lon="6.42352">
        <ele>1030.926</ele>
        <time>2017-06-25T09:16:58Z</time>
      </trkpt>
      <trkpt lat="47.00989" lon="6.42349">
        <ele>1031.02</ele>
        <time>2017-06-25T09:17:07Z</time>
      </trkpt>
      <trkpt lat="47.00998" lon="6.42346">
        <ele>1030.578</ele>
        <time>2017-06-25T09:17:24Z</time>
      </trkpt>
      <trkpt lat="47.01009" lon="6.42338">
        <ele>1030.228</ele>
        <time>2017-06-25T09:17:34Z</time>
      </trkpt>
      <trkpt lat="47.01024" lon="6.42331">
        <ele>1029.327</ele>
        <time>2017-06-25T09:17:45Z</time>
      </trkpt>
      <trkpt lat="47.01039" lon="6.42324">
        <ele>1029.408</ele>
        <time>2017-06-25T09:17:55Z</time>
      </trkpt>
      <trkpt lat="47.0105" lon="6.4232">
        <ele>1029.608</ele>
        <time>2017-06-25T09:18:02Z</time>
      </trkpt>
      <trkpt lat="47.01057" lon="6.42323">
        <ele>1029.023</ele>
        <time>2017-06-25T09:18:07Z</time>
      </trkpt>
      <trkpt lat="47.01068" lon="6.42323">
        <ele>1027.689</ele>
        <time>2017-06-25T09:18:13Z</time>
      </trkpt>
      <trkpt lat="47.01077" lon="6.42329">
        <ele>1026.724</ele>
        <time>2017-06-25T09:18:22Z</time>
      </trkpt>
      <trkpt lat="47.01082" lon="6.42328">
        <ele>1026.395</ele>
        <time>2017-06-25T09:19:09Z</time>
      </trkpt>
      <trkpt lat="47.01083" lon="6.42329">
        <ele>1026.767</ele>
        <time>2017-06-25T09:19:19Z</time>
      </trkpt>
      <trkpt lat="47.01097" lon="6.42344">
        <ele>1025.562</ele>
        <time>2017-06-25T09:19:26Z</time>
      </trkpt>
      <trkpt lat="47.01099" lon="6.42388">
        <ele>1025.298</ele>
        <time>2017-06-25T09:19:33Z</time>
      </trkpt>
      <trkpt lat="47.0109" lon="6.42424">
        <ele>1023.973</ele>
        <time>2017-06-25T09:19:38Z</time>
      </trkpt>
      <trkpt lat="47.01083" lon="6.42445">
        <ele>1023.458</ele>
        <time>2017-06-25T09:19:41Z</time>
      </trkpt>
      <trkpt lat="47.01077" lon="6.42483">
        <ele>1022.217</ele>
        <time>2017-06-25T09:19:47Z</time>
      </trkpt>
      <trkpt lat="47.01074" lon="6.42504">
        <ele>1020.458</ele>
        <time>2017-06-25T09:19:50Z</time>
      </trkpt>
      <trkpt lat="47.01072" lon="6.42536">
        <ele>1018.218</ele>
        <time>2017-06-25T09:19:54Z</time>
      </trkpt>
      <trkpt lat="47.0107" lon="6.42559">
        <ele>1016.56</ele>
        <time>2017-06-25T09:19:57Z</time>
      </trkpt>
      <trkpt lat="47.01067" lon="6.4258">
        <ele>1015.889</ele>
        <time>2017-06-25T09:20:00Z</time>
      </trkpt>
      <trkpt lat="47.01072" lon="6.42608">
        <ele>1014.201</ele>
        <time>2017-06-25T09:20:04Z</time>
      </trkpt>
      <trkpt lat="47.01082" lon="6.42618">
        <ele>1013.259</ele>
        <time>2017-06-25T09:20:06Z</time>
      </trkpt>
      <trkpt lat="47.01099" lon="6.42628">
        <ele>1012.761</ele>
        <time>2017-06-25T09:20:09Z</time>
      </trkpt>
      <trkpt lat="47.01131" lon="6.42649">
        <ele>1013.51</ele>
        <time>2017-06-25T09:20:18Z</time>
      </trkpt>
      <trkpt lat="47.01157" lon="6.4267">
        <ele>1013.86</ele>
        <time>2017-06-25T09:20:26Z</time>
      </trkpt>
      <trkpt lat="47.0119" lon="6.42703">
        <ele>1013.507</ele>
        <time>2017-06-25T09:20:36Z</time>
      </trkpt>
      <trkpt lat="47.01201" lon="6.42713">
        <ele>1013.239</ele>
        <time>2017-06-25T09:20:39Z</time>
      </trkpt>
      <trkpt lat="47.01214" lon="6.42733">
        <ele>1012.673</ele>
        <time>2017-06-25T09:20:43Z</time>
      </trkpt>
      <trkpt lat="47.01226" lon="6.42764">
        <ele>1011.456</ele>
        <time>2017-06-25T09:20:48Z</time>
      </trkpt>
      <trkpt lat="47.0123" lon="6.4279">
        <ele>1010.94</ele>
        <time>2017-06-25T09:20:51Z</time>
      </trkpt>
      <trkpt lat="47.01228" lon="6.42832">
        <ele>1010.437</ele>
        <time>2017-06-25T09:20:55Z</time>
      </trkpt>
      <trkpt lat="47.01217" lon="6.42875">
        <ele>1010.967</ele>
        <time>2017-06-25T09:21:02Z</time>
      </trkpt>
      <trkpt lat="47.01205" lon="6.42917">
        <ele>1012.911</ele>
        <time>2017-06-25T09:21:11Z</time>
      </trkpt>
      <trkpt lat="47.01203" lon="6.42947">
        <ele>1014.327</ele>
        <time>2017-06-25T09:21:17Z</time>
      </trkpt>
      <trkpt lat="47.01207" lon="6.42973">
        <ele>1013.093</ele>
        <time>2017-06-25T09:21:21Z</time>
      </trkpt>
      <trkpt lat="47.01212" lon="6.42988">
        <ele>1012.836</ele>
        <time>2017-06-25T09:21:23Z</time>
      </trkpt>
      <trkpt lat="47.0121" lon="6.43049">
        <ele>1011.091</ele>
        <time>2017-06-25T09:21:30Z</time>
      </trkpt>
      <trkpt lat="47.01198" lon="6.43085">
        <ele>1010.707</ele>
        <time>2017-06-25T09:21:34Z</time>
      </trkpt>
      <trkpt lat="47.01194" lon="6.43112">
        <ele>1009.397</ele>
        <time>2017-06-25T09:21:37Z</time>
      </trkpt>
      <trkpt lat="47.01194" lon="6.4312">
        <ele>1009.911</ele>
        <time>2017-06-25T09:21:38Z</time>
      </trkpt>
      <trkpt lat="47.01196" lon="6.43143">
        <ele>1009.504</ele>
        <time>2017-06-25T09:21:41Z</time>
      </trkpt>
      <trkpt lat="47.01198" lon="6.43174">
        <ele>1009.266</ele>
        <time>2017-06-25T09:21:45Z</time>
      </trkpt>
      <trkpt lat="47.01198" lon="6.43207">
        <ele>1008.586</ele>
        <time>2017-06-25T09:21:49Z</time>
      </trkpt>
      <trkpt lat="47.01201" lon="6.43265">
        <ele>1007.37</ele>
        <time>2017-06-25T09:21:55Z</time>
      </trkpt>
      <trkpt lat="47.01202" lon="6.4331">
        <ele>1005.098</ele>
        <time>2017-06-25T09:21:59Z</time>
      </trkpt>
      <trkpt lat="47.01192" lon="6.43355">
        <ele>1004.169</ele>
        <time>2017-06-25T09:22:03Z</time>
      </trkpt>
      <trkpt lat="47.01142" lon="6.43442">
        <ele>1002.428</ele>
        <time>2017-06-25T09:22:14Z</time>
      </trkpt>
      <trkpt lat="47.01122" lon="6.43469">
        <ele>1001.125</ele>
        <time>2017-06-25T09:22:18Z</time>
      </trkpt>
      <trkpt lat="47.01086" lon="6.43536">
        <ele>997.576</ele>
        <time>2017-06-25T09:22:26Z</time>
      </trkpt>
      <trkpt lat="47.01074" lon="6.43566">
        <ele>996.128</ele>
        <time>2017-06-25T09:22:29Z</time>
      </trkpt>
      <trkpt lat="47.01065" lon="6.43585">
        <ele>994.871</ele>
        <time>2017-06-25T09:22:31Z</time>
      </trkpt>
      <trkpt lat="47.01014" lon="6.43669">
        <ele>992.677</ele>
        <time>2017-06-25T09:22:42Z</time>
      </trkpt>
      <trkpt lat="47.01003" lon="6.43698">
        <ele>990.558</ele>
        <time>2017-06-25T09:22:45Z</time>
      </trkpt>
      <trkpt lat="47.00989" lon="6.43749">
        <ele>988.973</ele>
        <time>2017-06-25T09:22:51Z</time>
      </trkpt>
      <trkpt lat="47.00986" lon="6.4376">
        <ele>988.977</ele>
        <time>2017-06-25T09:22:55Z</time>
      </trkpt>
      <trkpt lat="47.00986" lon="6.4376">
        <ele>989.176</ele>
        <time>2017-06-25T09:23:04Z</time>
      </trkpt>
      <trkpt lat="47.00988" lon="6.4376">
        <ele>989.175</ele>
        <time>2017-06-25T09:23:54Z</time>
      </trkpt>
      <trkpt lat="47.0099" lon="6.43759">
        <ele>990.246</ele>
        <time>2017-06-25T09:24:06Z</time>
      </trkpt>
      <trkpt lat="47.00991" lon="6.43757">
        <ele>989.847</ele>
        <time>2017-06-25T09:24:29Z</time>
      </trkpt>
      <trkpt lat="47.01" lon="6.43721">
        <ele>990.484</ele>
        <time>2017-06-25T09:24:22Z</time>
      </trkpt>
      <trkpt lat="47.01024" lon="6.4366">
        <ele>991.794</ele>
        <time>2017-06-25T09:24:40Z</time>
      </trkpt>
      <trkpt lat="47.01026" lon="6.43657">
        <ele>992.231</ele>
        <time>2017-06-25T09:24:49Z</time>
      </trkpt>
      <trkpt lat="47.01026" lon="6.43657">
        <ele>992.388</ele>
        <time>2017-06-25T09:24:57Z</time>
      </trkpt>
      <trkpt lat="47.01053" lon="6.43655">
        <ele>994.484</ele>
        <time>2017-06-25T09:25:12Z</time>
      </trkpt>
      <trkpt lat="47.01085" lon="6.43656">
        <ele>996.731</ele>
        <time>2017-06-25T09:25:28Z</time>
      </trkpt>
      <trkpt lat="47.011" lon="6.43659">
        <ele>998.763</ele>
        <time>2017-06-25T09:25:36Z</time>
      </trkpt>
      <trkpt lat="47.01132" lon="6.43663">
        <ele>999.428</ele>
        <time>2017-06-25T09:25:54Z</time>
      </trkpt>
      <trkpt lat="47.01144" lon="6.43661">
        <ele>999.815</ele>
        <time>2017-06-25T09:26:05Z</time>
      </trkpt>
      <trkpt lat="47.01144" lon="6.43658">
        <ele>999.582</ele>
        <time>2017-06-25T09:26:16Z</time>
      </trkpt>
      <trkpt lat="47.01144" lon="6.43657">
        <ele>1000.211</ele>
        <time>2017-06-25T09:26:20Z</time>
      </trkpt>
      <trkpt lat="47.01161" lon="6.4363">
        <ele>998.811</ele>
        <time>2017-06-25T09:26:30Z</time>
      </trkpt>
      <trkpt lat="47.01169" lon="6.43616">
        <ele>997.39</ele>
        <time>2017-06-25T09:26:33Z</time>
      </trkpt>
      <trkpt lat="47.01195" lon="6.43595">
        <ele>997.797</ele>
        <time>2017-06-25T09:26:43Z</time>
      </trkpt>
      <trkpt lat="47.01214" lon="6.43583">
        <ele>998.987</ele>
        <time>2017-06-25T09:26:51Z</time>
      </trkpt>
      <trkpt lat="47.01242" lon="6.4355">
        <ele>998.74</ele>
        <time>2017-06-25T09:27:04Z</time>
      </trkpt>
      <trkpt lat="47.01283" lon="6.43494">
        <ele>996.196</ele>
        <time>2017-06-25T09:27:13Z</time>
      </trkpt>
      <trkpt lat="47.01303" lon="6.43466">
        <ele>995.709</ele>
        <time>2017-06-25T09:27:17Z</time>
      </trkpt>
      <trkpt lat="47.01317" lon="6.43417">
        <ele>995.907</ele>
        <time>2017-06-25T09:27:24Z</time>
      </trkpt>
      <trkpt lat="47.0132" lon="6.43413">
        <ele>995.61</ele>
        <time>2017-06-25T09:27:25Z</time>
      </trkpt>
      <trkpt lat="47.01339" lon="6.43371">
        <ele>995.45</ele>
        <time>2017-06-25T09:27:37Z</time>
      </trkpt>
      <trkpt lat="47.01354" lon="6.43347">
        <ele>995.694</ele>
        <time>2017-06-25T09:27:47Z</time>
      </trkpt>
      <trkpt lat="47.01381" lon="6.43318">
        <ele>994.276</ele>
        <time>2017-06-25T09:27:58Z</time>
      </trkpt>
      <trkpt lat="47.01394" lon="6.43308">
        <ele>993.812</ele>
        <time>2017-06-25T09:28:04Z</time>
      </trkpt>
      <trkpt lat="47.01393" lon="6.43306">
        <ele>993.442</ele>
        <time>2017-06-25T09:28:32Z</time>
      </trkpt>
      <trkpt lat="47.01392" lon="6.43305">
        <ele>994.244</ele>
        <time>2017-06-25T09:28:41Z</time>
      </trkpt>
      <trkpt lat="47.01387" lon="6.43312">
        <ele>994.203</ele>
        <time>2017-06-25T09:28:45Z</time>
      </trkpt>
      <trkpt lat="47.01362" lon="6.43338">
        <ele>995.618</ele>
        <time>2017-06-25T09:28:58Z</time>
      </trkpt>
      <trkpt lat="47.01341" lon="6.43364">
        <ele>995.62</ele>
        <time>2017-06-25T09:29:08Z</time>
      </trkpt>
      <trkpt lat="47.01328" lon="6.43395">
        <ele>995.552</ele>
        <time>2017-06-25T09:29:16Z</time>
      </trkpt>
      <trkpt lat="47.01312" lon="6.43422">
        <ele>994.853</ele>
        <time>2017-06-25T09:29:24Z</time>
      </trkpt>
      <trkpt lat="47.0131" lon="6.43451">
        <ele>995.276</ele>
        <time>2017-06-25T09:29:32Z</time>
      </trkpt>
      <trkpt lat="47.01318" lon="6.43485">
        <ele>996.296</ele>
        <time>2017-06-25T09:29:44Z</time>
      </trkpt>
      <trkpt lat="47.01331" lon="6.43509">
        <ele>996.876</ele>
        <time>2017-06-25T09:29:54Z</time>
      </trkpt>
      <trkpt lat="47.01358" lon="6.43533">
        <ele>995.181</ele>
        <time>2017-06-25T09:30:08Z</time>
      </trkpt>
      <trkpt lat="47.01384" lon="6.43566">
        <ele>994.301</ele>
        <time>2017-06-25T09:30:16Z</time>
      </trkpt>
      <trkpt lat="47.01395" lon="6.43578">
        <ele>993.939</ele>
        <time>2017-06-25T09:30:19Z</time>
      </trkpt>
      <trkpt lat="47.01419" lon="6.43623">
        <ele>992.303</ele>
        <time>2017-06-25T09:30:28Z</time>
      </trkpt>
      <trkpt lat="47.01432" lon="6.43639">
        <ele>989.771</ele>
        <time>2017-06-25T09:30:32Z</time>
      </trkpt>
      <trkpt lat="47.01464" lon="6.43673">
        <ele>988.139</ele>
        <time>2017-06-25T09:30:40Z</time>
      </trkpt>
      <trkpt lat="47.01477" lon="6.43685">
        <ele>986.05</ele>
        <time>2017-06-25T09:30:43Z</time>
      </trkpt>
      <trkpt lat="47.01518" lon="6.43725">
        <ele>982.745</ele>
        <time>2017-06-25T09:30:52Z</time>
      </trkpt>
      <trkpt lat="47.01522" lon="6.43728">
        <ele>982.517</ele>
        <time>2017-06-25T09:30:53Z</time>
      </trkpt>
      <trkpt lat="47.01534" lon="6.43737">
        <ele>980.328</ele>
        <time>2017-06-25T09:30:56Z</time>
      </trkpt>
      <trkpt lat="47.01561" lon="6.43755">
        <ele>977.022</ele>
        <time>2017-06-25T09:31:03Z</time>
      </trkpt>
      <trkpt lat="47.01576" lon="6.43765">
        <ele>975.123</ele>
        <time>2017-06-25T09:31:07Z</time>
      </trkpt>
      <trkpt lat="47.0159" lon="6.43785">
        <ele>971.736</ele>
        <time>2017-06-25T09:31:11Z</time>
      </trkpt>
      <trkpt lat="47.01606" lon="6.43808">
        <ele>970.157</ele>
        <time>2017-06-25T09:31:15Z</time>
      </trkpt>
      <trkpt lat="47.01615" lon="6.43829">
        <ele>969.111</ele>
        <time>2017-06-25T09:31:19Z</time>
      </trkpt>
      <trkpt lat="47.01615" lon="6.43832">
        <ele>968.931</ele>
        <time>2017-06-25T09:31:26Z</time>
      </trkpt>
      <trkpt lat="47.01617" lon="6.43829">
        <ele>968.456</ele>
        <time>2017-06-25T09:31:37Z</time>
      </trkpt>
      <trkpt lat="47.01618" lon="6.43829">
        <ele>968.116</ele>
        <time>2017-06-25T09:31:51Z</time>
      </trkpt>
      <trkpt lat="47.01619" lon="6.43829">
        <ele>968.58</ele>
        <time>2017-06-25T09:32:03Z</time>
      </trkpt>
      <trkpt lat="47.01624" lon="6.4383">
        <ele>968.936</ele>
        <time>2017-06-25T09:32:40Z</time>
      </trkpt>
      <trkpt lat="47.01634" lon="6.43857">
        <ele>965.912</ele>
        <time>2017-06-25T09:32:48Z</time>
      </trkpt>
      <trkpt lat="47.01641" lon="6.4388">
        <ele>965.407</ele>
        <time>2017-06-25T09:32:54Z</time>
      </trkpt>
      <trkpt lat="47.0165" lon="6.43891">
        <ele>962.597</ele>
        <time>2017-06-25T09:33:00Z</time>
      </trkpt>
      <trkpt lat="47.01662" lon="6.439">
        <ele>958.773</ele>
        <time>2017-06-25T09:33:06Z</time>
      </trkpt>
      <trkpt lat="47.01689" lon="6.4392">
        <ele>955.028</ele>
        <time>2017-06-25T09:33:14Z</time>
      </trkpt>
      <trkpt lat="47.01694" lon="6.43923">
        <ele>953.982</ele>
        <time>2017-06-25T09:33:15Z</time>
      </trkpt>
      <trkpt lat="47.0171" lon="6.43945">
        <ele>951.086</ele>
        <time>2017-06-25T09:33:19Z</time>
      </trkpt>
      <trkpt lat="47.01727" lon="6.43972">
        <ele>950.93</ele>
        <time>2017-06-25T09:33:26Z</time>
      </trkpt>
      <trkpt lat="47.01748" lon="6.44001">
        <ele>947.679</ele>
        <time>2017-06-25T09:33:35Z</time>
      </trkpt>
      <trkpt lat="47.01759" lon="6.44014">
        <ele>945.514</ele>
        <time>2017-06-25T09:33:39Z</time>
      </trkpt>
      <trkpt lat="47.0178" lon="6.44045">
        <ele>943.123</ele>
        <time>2017-06-25T09:33:46Z</time>
      </trkpt>
      <trkpt lat="47.01786" lon="6.44061">
        <ele>940.883</ele>
        <time>2017-06-25T09:33:49Z</time>
      </trkpt>
      <trkpt lat="47.01795" lon="6.44083">
        <ele>939.111</ele>
        <time>2017-06-25T09:33:53Z</time>
      </trkpt>
      <trkpt lat="47.01803" lon="6.44105">
        <ele>937.94</ele>
        <time>2017-06-25T09:33:57Z</time>
      </trkpt>
      <trkpt lat="47.01821" lon="6.44116">
        <ele>936.22</ele>
        <time>2017-06-25T09:34:05Z</time>
      </trkpt>
      <trkpt lat="47.0182" lon="6.44118">
        <ele>934.744</ele>
        <time>2017-06-25T09:34:16Z</time>
      </trkpt>
      <trkpt lat="47.0182" lon="6.44118">
        <ele>935.278</ele>
        <time>2017-06-25T09:34:23Z</time>
      </trkpt>
      <trkpt lat="47.01821" lon="6.44096">
        <ele>934.344</ele>
        <time>2017-06-25T09:34:29Z</time>
      </trkpt>
      <trkpt lat="47.01823" lon="6.44062">
        <ele>930.333</ele>
        <time>2017-06-25T09:34:34Z</time>
      </trkpt>
      <trkpt lat="47.01823" lon="6.44033">
        <ele>926.179</ele>
        <time>2017-06-25T09:34:38Z</time>
      </trkpt>
      <trkpt lat="47.01824" lon="6.44018">
        <ele>924.628</ele>
        <time>2017-06-25T09:34:40Z</time>
      </trkpt>
      <trkpt lat="47.01823" lon="6.43994">
        <ele>922.412</ele>
        <time>2017-06-25T09:34:43Z</time>
      </trkpt>
      <trkpt lat="47.01826" lon="6.43961">
        <ele>920.324</ele>
        <time>2017-06-25T09:34:47Z</time>
      </trkpt>
      <trkpt lat="47.01827" lon="6.4394">
        <ele>917.229</ele>
        <time>2017-06-25T09:34:50Z</time>
      </trkpt>
      <trkpt lat="47.01828" lon="6.43934">
        <ele>917.354</ele>
        <time>2017-06-25T09:34:51Z</time>
      </trkpt>
      <trkpt lat="47.01829" lon="6.43925">
        <ele>915.554</ele>
        <time>2017-06-25T09:34:54Z</time>
      </trkpt>
      <trkpt lat="47.01829" lon="6.4392">
        <ele>915.713</ele>
        <time>2017-06-25T09:35:04Z</time>
      </trkpt>
      <trkpt lat="47.01827" lon="6.43916">
        <ele>915.486</ele>
        <time>2017-06-25T09:35:19Z</time>
      </trkpt>
      <trkpt lat="47.01825" lon="6.43914">
        <ele>915.845</ele>
        <time>2017-06-25T09:35:31Z</time>
      </trkpt>
      <trkpt lat="47.01824" lon="6.43899">
        <ele>915.468</ele>
        <time>2017-06-25T09:35:37Z</time>
      </trkpt>
      <trkpt lat="47.01824" lon="6.43884">
        <ele>915.048</ele>
        <time>2017-06-25T09:35:43Z</time>
      </trkpt>
      <trkpt lat="47.01818" lon="6.43851">
        <ele>912.379</ele>
        <time>2017-06-25T09:35:50Z</time>
      </trkpt>
      <trkpt lat="47.01815" lon="6.4384">
        <ele>911.405</ele>
        <time>2017-06-25T09:35:52Z</time>
      </trkpt>
      <trkpt lat="47.01811" lon="6.43802">
        <ele>911.584</ele>
        <time>2017-06-25T09:35:58Z</time>
      </trkpt>
      <trkpt lat="47.01812" lon="6.43791">
        <ele>911.35</ele>
        <time>2017-06-25T09:36:00Z</time>
      </trkpt>
      <trkpt lat="47.0181" lon="6.4376">
        <ele>910.332</ele>
        <time>2017-06-25T09:36:04Z</time>
      </trkpt>
      <trkpt lat="47.0181" lon="6.43714">
        <ele>906.057</ele>
        <time>2017-06-25T09:36:09Z</time>
      </trkpt>
      <trkpt lat="47.0181" lon="6.43705">
        <ele>906.564</ele>
        <time>2017-06-25T09:36:10Z</time>
      </trkpt>
      <trkpt lat="47.01812" lon="6.43678">
        <ele>905.464</ele>
        <time>2017-06-25T09:36:13Z</time>
      </trkpt>
      <trkpt lat="47.01832" lon="6.4365">
        <ele>900.23</ele>
        <time>2017-06-25T09:36:19Z</time>
      </trkpt>
      <trkpt lat="47.01843" lon="6.4365">
        <ele>899.494</ele>
        <time>2017-06-25T09:36:21Z</time>
      </trkpt>
      <trkpt lat="47.01896" lon="6.43644">
        <ele>898.315</ele>
        <time>2017-06-25T09:36:29Z</time>
      </trkpt>
      <trkpt lat="47.01952" lon="6.43631">
        <ele>895.608</ele>
        <time>2017-06-25T09:36:37Z</time>
      </trkpt>
      <trkpt lat="47.02026" lon="6.43611">
        <ele>892.559</ele>
        <time>2017-06-25T09:36:48Z</time>
      </trkpt>
      <trkpt lat="47.021" lon="6.43597">
        <ele>890.379</ele>
        <time>2017-06-25T09:36:59Z</time>
      </trkpt>
      <trkpt lat="47.02141" lon="6.4357">
        <ele>890.136</ele>
        <time>2017-06-25T09:37:07Z</time>
      </trkpt>
      <trkpt lat="47.02211" lon="6.43507">
        <ele>890.443</ele>
        <time>2017-06-25T09:37:24Z</time>
      </trkpt>
      <trkpt lat="47.02232" lon="6.43488">
        <ele>890.142</ele>
        <time>2017-06-25T09:37:29Z</time>
      </trkpt>
      <trkpt lat="47.02253" lon="6.43454">
        <ele>889.705</ele>
        <time>2017-06-25T09:37:36Z</time>
      </trkpt>
      <trkpt lat="47.02287" lon="6.43362">
        <ele>889.741</ele>
        <time>2017-06-25T09:37:51Z</time>
      </trkpt>
      <trkpt lat="47.02312" lon="6.43304">
        <ele>890.307</ele>
        <time>2017-06-25T09:38:04Z</time>
      </trkpt>
      <trkpt lat="47.02324" lon="6.43275">
        <ele>892.419</ele>
        <time>2017-06-25T09:38:12Z</time>
      </trkpt>
      <trkpt lat="47.02343" lon="6.43246">
        <ele>895.278</ele>
        <time>2017-06-25T09:38:23Z</time>
      </trkpt>
      <trkpt lat="47.02343" lon="6.43233">
        <ele>895.555</ele>
        <time>2017-06-25T09:38:31Z</time>
      </trkpt>
      <trkpt lat="47.02345" lon="6.43231">
        <ele>895.653</ele>
        <time>2017-06-25T09:39:12Z</time>
      </trkpt>
      <trkpt lat="47.02341" lon="6.43215">
        <ele>897.511</ele>
        <time>2017-06-25T09:39:25Z</time>
      </trkpt>
      <trkpt lat="47.02344" lon="6.4315">
        <ele>898.459</ele>
        <time>2017-06-25T09:39:41Z</time>
      </trkpt>
      <trkpt lat="47.02341" lon="6.43082">
        <ele>899.611</ele>
        <time>2017-06-25T09:39:57Z</time>
      </trkpt>
      <trkpt lat="47.02333" lon="6.43013">
        <ele>898.989</ele>
        <time>2017-06-25T09:40:11Z</time>
      </trkpt>
      <trkpt lat="47.02333" lon="6.42976">
        <ele>898.862</ele>
        <time>2017-06-25T09:40:17Z</time>
      </trkpt>
      <trkpt lat="47.02352" lon="6.42883">
        <ele>899.688</ele>
        <time>2017-06-25T09:40:32Z</time>
      </trkpt>
      <trkpt lat="47.02367" lon="6.42826">
        <ele>901.01</ele>
        <time>2017-06-25T09:40:41Z</time>
      </trkpt>
      <trkpt lat="47.02364" lon="6.42794">
        <ele>902.023</ele>
        <time>2017-06-25T09:40:46Z</time>
      </trkpt>
      <trkpt lat="47.02337" lon="6.42738">
        <ele>902.18</ele>
        <time>2017-06-25T09:40:58Z</time>
      </trkpt>
      <trkpt lat="47.02324" lon="6.42719">
        <ele>903.549</ele>
        <time>2017-06-25T09:41:03Z</time>
      </trkpt>
      <trkpt lat="47.02301" lon="6.42702">
        <ele>901.88</ele>
        <time>2017-06-25T09:41:10Z</time>
      </trkpt>
      <trkpt lat="47.02245" lon="6.42653">
        <ele>899.561</ele>
        <time>2017-06-25T09:41:22Z</time>
      </trkpt>
      <trkpt lat="47.02205" lon="6.42624">
        <ele>898.663</ele>
        <time>2017-06-25T09:41:29Z</time>
      </trkpt>
      <trkpt lat="47.02184" lon="6.4257">
        <ele>899.803</ele>
        <time>2017-06-25T09:41:39Z</time>
      </trkpt>
      <trkpt lat="47.02174" lon="6.42535">
        <ele>901.479</ele>
        <time>2017-06-25T09:41:46Z</time>
      </trkpt>
      <trkpt lat="47.02146" lon="6.42463">
        <ele>900.932</ele>
        <time>2017-06-25T09:42:01Z</time>
      </trkpt>
      <trkpt lat="47.02139" lon="6.42455">
        <ele>900.506</ele>
        <time>2017-06-25T09:42:03Z</time>
      </trkpt>
      <trkpt lat="47.02134" lon="6.42426">
        <ele>899.902</ele>
        <time>2017-06-25T09:42:08Z</time>
      </trkpt>
      <trkpt lat="47.02149" lon="6.42337">
        <ele>901.673</ele>
        <time>2017-06-25T09:42:23Z</time>
      </trkpt>
      <trkpt lat="47.02156" lon="6.42309">
        <ele>902.063</ele>
        <time>2017-06-25T09:42:31Z</time>
      </trkpt>
      <trkpt lat="47.02157" lon="6.42309">
        <ele>901.444</ele>
        <time>2017-06-25T09:42:39Z</time>
      </trkpt>
      <trkpt lat="47.02152" lon="6.42313">
        <ele>900.508</ele>
        <time>2017-06-25T09:42:57Z</time>
      </trkpt>
      <trkpt lat="47.02152" lon="6.42314">
        <ele>898.932</ele>
        <time>2017-06-25T09:43:09Z</time>
      </trkpt>
    </trkseg>
  </trk>
</gpx>